Time;durP1;ratioP1;P1;durP2;ratioP2;P2;SDS_P1;SDS_P2;PMS_P1;PMS_P2;Temp;Humidity;BMP_temperature;BMP_pressure;BME280_temperature;BME280_humidity;BME280_pressure;Samples;Min_cycle;Max_cycle;Signal;HPM_P1;HPM_P2
2023/05/10 00:01:26;;;;;;;1.57;1.47;;;;;;;18.18;36.94;100524.72;5004151;28;103609;-83
2023/05/10 00:03:52;;;;;;;1.80;1.57;;;;;;;18.14;37.14;100521.56;4997857;28;97091;-81
2023/05/10 00:06:17;;;;;;;1.73;1.63;;;;;;;18.07;36.68;100522.25;5002373;28;97445;-83
2023/05/10 00:08:43;;;;;;;1.53;1.43;;;;;;;17.98;36.82;100518.69;4999159;28;99573;-84
2023/05/10 00:11:08;;;;;;;1.53;1.43;;;;;;;17.92;36.84;100520.88;4999566;28;99690;-83
2023/05/10 00:13:33;;;;;;;1.43;1.43;;;;;;;17.83;36.91;100504.66;5013130;27;97266;-83
2023/05/10 00:15:59;;;;;;;1.87;1.70;;;;;;;17.75;36.95;100503.13;4997796;28;100876;-83
2023/05/10 00:18:24;;;;;;;1.63;1.53;;;;;;;17.62;37.35;100509.53;5008688;27;100438;-84
2023/05/10 00:20:50;;;;;;;1.57;1.47;;;;;;;17.64;37.51;100506.19;4996518;28;96602;-84
2023/05/10 00:23:15;;;;;;;1.70;1.60;;;;;;;17.57;37.39;100499.28;5012532;27;97612;-83
2023/05/10 00:25:40;;;;;;;2.00;1.77;;;;;;;17.49;37.33;100500.47;5002799;28;97502;-82
2023/05/10 00:28:06;;;;;;;1.60;1.50;;;;;;;17.40;37.50;100493.38;4995643;28;96928;-83
2023/05/10 00:30:31;;;;;;;1.40;1.30;;;;;;;17.31;37.75;100495.84;4998089;28;97975;-83
2023/05/10 00:32:56;;;;;;;1.90;1.73;;;;;;;17.27;37.75;100493.44;4995906;28;102923;-83
2023/05/10 00:35:22;;;;;;;2.93;1.63;;;;;;;17.22;37.89;100483.19;5012231;27;97190;-83
2023/05/10 00:37:48;;;;;;;1.37;1.27;;;;;;;17.18;38.11;100483.53;5009466;27;99339;-84
2023/05/10 00:40:13;;;;;;;1.80;1.70;;;;;;;17.09;38.18;100481.22;4997508;28;98062;-83
2023/05/10 00:42:38;;;;;;;1.60;1.50;;;;;;;17.12;38.13;100479.41;4998013;28;97166;-84
2023/05/10 00:45:04;;;;;;;1.70;1.60;;;;;;;17.07;38.48;100480.25;5012777;27;96963;-84
2023/05/10 00:47:31;;;;;;;1.53;1.43;;;;;;;17.01;38.41;100471.31;5012278;27;100692;-83
2023/05/10 00:49:56;;;;;;;1.60;1.50;;;;;;;17.00;38.51;100486.50;4997093;28;99432;-83
2023/05/10 00:52:23;;;;;;;1.50;1.40;;;;;;;16.97;38.50;100473.69;4996077;28;96985;-82
2023/05/10 00:54:51;;;;;;;1.87;1.77;;;;;;;16.96;38.53;100477.75;4996354;28;96928;-82
2023/05/10 00:57:16;;;;;;;2.30;2.20;;;;;;;16.90;38.40;100483.44;5012284;27;99218;-82
2023/05/10 00:59:41;;;;;;;3.30;1.70;;;;;;;16.83;38.59;100463.91;4997104;28;99039;-82
2023/05/10 01:02:07;;;;;;;2.60;1.80;;;;;;;16.76;38.90;100459.00;4994679;28;96797;-82
2023/05/10 01:04:33;;;;;;;1.97;1.50;;;;;;;16.74;38.92;100475.47;4995313;28;97508;-82
2023/05/10 01:06:58;;;;;;;2.23;1.50;;;;;;;16.69;39.08;100485.41;4995413;28;100641;-82
2023/05/10 01:09:26;;;;;;;2.30;1.53;;;;;;;16.58;39.29;100462.72;4997923;28;96779;-82
2023/05/10 01:11:51;;;;;;;1.70;1.60;;;;;;;16.49;39.19;100470.16;4997472;28;98002;-83
2023/05/10 01:14:19;;;;;;;3.53;1.70;;;;;;;16.46;39.35;100476.06;5012493;27;96880;-82
2023/05/10 01:16:46;;;;;;;2.23;2.03;;;;;;;16.43;39.40;100472.31;4999786;28;100563;-82
2023/05/10 01:19:34;;;;;;;3.40;1.70;;;;;;;16.36;40.15;100461.09;4994441;28;97757;-82
2023/05/10 01:22:06;;;;;;;2.30;1.27;;;;;;;16.31;39.64;100454.41;4996445;28;98460;-81
2023/05/10 01:25:02;;;;;;;1.90;1.80;;;;;;;16.30;40.45;100469.56;5009332;27;97695;-82
2023/05/10 01:27:33;;;;;;;2.10;1.80;;;;;;;16.29;39.96;100462.50;5006341;27;99571;-82
2023/05/10 01:30:14;;;;;;;1.60;1.50;;;;;;;16.28;39.87;100457.50;5011320;27;99457;-81
2023/05/10 01:33:20;;;;;;;1.80;1.70;;;;;;;16.20;40.55;100459.44;4997247;28;97096;-81
2023/05/10 01:36:08;;;;;;;1.63;1.53;;;;;;;16.18;40.96;100464.78;4996018;28;97198;-82
2023/05/10 01:38:50;;;;;;;3.07;1.77;;;;;;;16.16;40.39;100456.97;4995817;28;97855;-81
2023/05/10 01:41:36;;;;;;;1.87;1.77;;;;;;;16.13;40.64;100463.63;4994541;28;100559;-82
2023/05/10 01:44:16;;;;;;;2.03;1.83;;;;;;;16.09;40.67;100452.09;5009279;27;98562;-82
2023/05/10 01:46:42;;;;;;;1.80;1.70;;;;;;;16.07;40.26;100451.88;4994910;28;97149;-81
2023/05/10 01:49:40;;;;;;;2.80;2.10;;;;;;;16.04;40.98;100443.88;5001633;28;100693;-82
2023/05/10 01:52:12;;;;;;;1.90;1.80;;;;;;;16.03;40.69;100456.25;4986623;28;99724;-82
2023/05/10 01:54:44;;;;;;;2.00;1.90;;;;;;;16.02;40.74;100452.72;4990380;28;97201;-82
2023/05/10 01:57:13;;;;;;;1.90;1.67;;;;;;;15.99;40.31;100459.34;4994780;28;97628;-83
2023/05/10 01:59:42;;;;;;;1.90;1.80;;;;;;;15.99;40.61;100455.84;4995619;28;97108;-81
2023/05/10 02:02:11;;;;;;;2.63;2.17;;;;;;;15.99;40.76;100445.47;4995661;28;100177;-82
2023/05/10 02:04:42;;;;;;;2.40;2.27;;;;;;;15.96;40.90;100446.56;4996023;28;97290;-81
2023/05/10 02:07:09;;;;;;;1.70;1.60;;;;;;;15.98;41.17;100466.19;4995571;28;97453;-82
2023/05/10 02:09:36;;;;;;;3.50;2.20;;;;;;;15.96;41.02;100449.34;5009251;27;99152;-82
2023/05/10 02:12:05;;;;;;;2.03;1.83;;;;;;;15.98;41.23;100455.09;4993563;28;96954;-81
2023/05/10 02:14:33;;;;;;;2.00;1.90;;;;;;;15.98;41.27;100455.09;5000587;28;97445;-82
2023/05/10 02:17:00;;;;;;;2.50;2.40;;;;;;;16.00;41.31;100446.97;4996900;28;97195;-82
2023/05/10 02:19:27;;;;;;;1.80;1.70;;;;;;;16.02;41.25;100444.41;4997253;28;97537;-82
2023/05/10 02:21:55;;;;;;;1.97;1.87;;;;;;;16.02;41.33;100454.75;4994603;28;99385;-81
2023/05/10 02:24:22;;;;;;;2.70;2.50;;;;;;;16.01;41.48;100459.56;5000312;28;97711;-81
2023/05/10 02:26:49;;;;;;;2.30;2.20;;;;;;;16.02;41.49;100452.72;4994154;28;97529;-82
2023/05/10 02:29:16;;;;;;;2.80;2.07;;;;;;;16.02;41.61;100463.09;4991668;28;96778;-81
2023/05/10 02:31:43;;;;;;;2.83;1.87;;;;;;;16.03;41.79;100456.97;5008957;27;100736;-81
2023/05/10 02:34:10;;;;;;;2.60;1.73;;;;;;;16.03;41.73;100456.97;5010750;27;97463;-83
2023/05/10 02:36:37;;;;;;;3.03;1.67;;;;;;;16.04;41.92;100460.50;4993946;28;96749;-82
2023/05/10 02:39:04;;;;;;;2.70;2.10;;;;;;;16.05;41.80;100451.69;5005284;27;100439;-83
2023/05/10 02:41:32;;;;;;;1.97;1.77;;;;;;;16.05;42.04;100454.44;4996266;28;96939;-82
2023/05/10 02:44:00;;;;;;;2.13;1.93;;;;;;;16.07;42.13;100448.34;5010384;27;97689;-82
2023/05/10 02:46:26;;;;;;;5.30;1.97;;;;;;;16.04;42.13;100441.09;4994578;28;97283;-82
2023/05/10 02:48:51;;;;;;;3.83;2.63;;;;;;;16.05;42.22;100453.69;4991944;28;100491;-82
2023/05/10 02:51:18;;;;;;;2.37;2.17;;;;;;;16.03;42.22;100440.34;4995546;28;97474;-82
2023/05/10 02:53:46;;;;;;;2.07;1.97;;;;;;;16.07;42.41;100440.78;4997224;28;96803;-81
2023/05/10 02:56:19;;;;;;;2.40;2.27;;;;;;;16.04;42.52;100479.94;5001805;28;98605;-82
2023/05/10 02:58:46;;;;;;;2.13;2.03;;;;;;;16.10;42.55;100434.16;4996666;28;100182;-81
2023/05/10 03:01:11;;;;;;;1.90;1.80;;;;;;;16.13;42.65;100441.41;4999016;28;97485;-81
2023/05/10 03:03:36;;;;;;;2.40;2.20;;;;;;;16.14;42.83;100429.00;4997873;28;98276;-81
2023/05/10 03:06:02;;;;;;;2.13;2.03;;;;;;;16.16;42.95;100447.91;5013372;27;97167;-81
2023/05/10 03:08:29;;;;;;;2.40;2.20;;;;;;;16.13;42.91;100426.78;4999697;28;99821;-81
2023/05/10 03:10:59;;;;;;;2.00;1.90;;;;;;;16.13;43.22;100443.44;5013739;27;98671;-81
2023/05/10 03:14:03;;;;;;;1.90;1.80;;;;;;;16.10;43.88;100420.28;5006029;28;97228;-82
2023/05/10 03:16:46;;;;;;;2.57;2.37;;;;;;;16.10;43.84;100439.69;4943151;28;97388;-81
2023/05/10 03:19:19;;;;;;;2.70;2.50;;;;;;;16.11;43.18;100434.91;4963430;28;97491;-82
2023/05/10 03:21:49;;;;;;;2.67;2.20;;;;;;;16.09;43.23;100438.22;4982492;28;98019;-81
2023/05/10 03:24:16;;;;;;;2.40;2.20;;;;;;;16.07;42.85;100435.25;4996234;28;97078;-81
2023/05/10 03:26:44;;;;;;;1.70;1.60;;;;;;;16.09;43.09;100431.91;4999204;28;97036;-80
2023/05/10 03:29:11;;;;;;;2.27;2.10;;;;;;;16.10;43.12;100425.81;4992602;28;97432;-82
2023/05/10 03:31:38;;;;;;;2.07;1.90;;;;;;;16.11;43.24;100430.09;5011551;27;99092;-81
2023/05/10 03:34:03;;;;;;;2.60;2.13;;;;;;;16.14;43.36;100469.91;4996367;28;96933;-82
2023/05/10 03:36:29;;;;;;;3.57;1.93;;;;;;;16.11;43.37;100446.75;4995732;28;97273;-82
2023/05/10 03:38:54;;;;;;;1.90;1.80;;;;;;;16.14;43.41;100456.78;4997784;28;97982;-82
2023/05/10 03:41:20;;;;;;;2.30;2.20;;;;;;;16.15;43.24;100440.88;5010542;27;100438;-82
2023/05/10 03:43:45;;;;;;;2.40;2.20;;;;;;;16.09;43.38;100437.47;4998461;28;96849;-82
2023/05/10 03:46:11;;;;;;;1.90;1.80;;;;;;;16.11;43.53;100441.19;4996219;28;96859;-82
2023/05/10 03:48:36;;;;;;;2.87;2.23;;;;;;;16.12;43.52;100442.69;5001751;28;99542;-82
2023/05/10 03:51:01;;;;;;;2.80;2.13;;;;;;;16.13;43.75;100430.31;4995763;28;96751;-83
2023/05/10 03:53:27;;;;;;;1.90;1.80;;;;;;;16.13;43.28;100427.53;5004856;27;98116;-82
2023/05/10 03:55:52;;;;;;;3.13;1.80;;;;;;;16.17;43.56;100439.06;4997751;28;97057;-82
2023/05/10 03:58:18;;;;;;;2.63;2.43;;;;;;;16.08;43.47;100453.38;4997101;28;97070;-82
2023/05/10 04:00:45;;;;;;;3.67;2.40;;;;;;;16.18;43.55;100426.69;4996417;28;100060;-82
2023/05/10 04:03:13;;;;;;;2.10;2.00;;;;;;;16.19;43.67;100430.19;4997222;28;97198;-82
2023/05/10 04:05:39;;;;;;;2.20;2.03;;;;;;;16.22;43.69;100420.78;4997924;28;97242;-82
2023/05/10 04:08:05;;;;;;;2.93;2.73;;;;;;;16.24;43.54;100443.97;4994215;28;100520;-82
2023/05/10 04:10:30;;;;;;;2.50;2.30;;;;;;;16.24;43.61;100440.44;4996801;28;97519;-82
2023/05/10 04:12:56;;;;;;;1.80;1.70;;;;;;;16.25;43.43;100428.78;5010778;27;96879;-82
2023/05/10 04:15:21;;;;;;;2.57;2.37;;;;;;;16.29;43.69;100442.34;4998153;28;96926;-82
2023/05/10 04:17:47;;;;;;;1.90;1.80;;;;;;;16.30;43.72;100432.72;4994920;28;97479;-82
2023/05/10 04:20:12;;;;;;;1.97;1.87;;;;;;;16.31;43.72;100426.66;4994308;28;100538;-82
2023/05/10 04:22:38;;;;;;;2.63;2.43;;;;;;;16.28;43.86;100415.88;4997100;28;97067;-82
2023/05/10 04:25:04;;;;;;;2.47;2.00;;;;;;;16.36;43.89;100439.66;4995097;28;97516;-82
2023/05/10 04:27:30;;;;;;;2.57;2.37;;;;;;;16.41;44.09;100444.34;5010055;27;99137;-82
2023/05/10 04:29:55;;;;;;;3.80;1.97;;;;;;;16.45;43.82;100430.88;4996979;28;100348;-82
2023/05/10 04:32:20;;;;;;;2.20;2.00;;;;;;;16.47;43.70;100433.84;5009575;27;97181;-82
2023/05/10 04:34:46;;;;;;;2.40;2.20;;;;;;;16.53;43.80;100433.03;5006380;27;96937;-81
2023/05/10 04:37:12;;;;;;;2.10;2.00;;;;;;;16.56;43.75;100423.59;4995974;28;97019;-82
2023/05/10 04:39:37;;;;;;;2.50;2.30;;;;;;;16.59;43.88;100439.94;4996029;28;99125;-83
2023/05/10 04:42:03;;;;;;;2.17;1.93;;;;;;;16.64;43.54;100441.09;4997710;28;97131;-83
2023/05/10 04:44:29;;;;;;;2.57;2.30;;;;;;;16.68;43.87;100436.72;5010641;27;97174;-81
2023/05/10 04:46:54;;;;;;;2.90;2.70;;;;;;;16.74;43.71;100433.78;4998577;28;99320;-81
2023/05/10 04:49:20;;;;;;;2.03;1.93;;;;;;;16.77;43.80;100427.91;4994922;28;97276;-81
2023/05/10 04:51:45;;;;;;;2.17;2.07;;;;;;;16.81;43.81;100435.91;4995264;28;97374;-83
2023/05/10 04:54:11;;;;;;;4.83;2.00;;;;;;;16.85;43.70;100437.06;5010248;27;96909;-81
2023/05/10 04:56:36;;;;;;;2.07;1.90;;;;;;;16.85;43.77;100430.75;5001817;28;104608;-81
2023/05/10 04:59:02;;;;;;;2.30;2.10;;;;;;;16.83;43.77;100430.56;4995415;28;99039;-81
2023/05/10 05:01:28;;;;;;;2.47;2.27;;;;;;;16.86;43.69;100435.03;4996644;28;97326;-82
2023/05/10 05:03:53;;;;;;;2.40;2.23;;;;;;;16.85;43.75;100447.44;4994565;28;97356;-81
2023/05/10 05:06:20;;;;;;;4.70;2.87;;;;;;;16.83;43.81;100452.78;4998001;28;100470;-81
2023/05/10 05:08:46;;;;;;;2.83;2.20;;;;;;;16.77;44.05;100438.28;4995759;28;98579;-82
2023/05/10 05:11:11;;;;;;;2.80;1.83;;;;;;;16.78;44.09;100481.44;4995009;28;96973;-81
2023/05/10 05:13:37;;;;;;;2.13;2.00;;;;;;;16.76;44.21;100459.75;5001486;28;98128;-81
2023/05/10 05:16:02;;;;;;;2.70;2.50;;;;;;;16.76;44.24;100445.88;4994076;28;99596;-81
2023/05/10 05:18:28;;;;;;;2.33;2.20;;;;;;;16.73;44.38;100451.78;4998329;28;99658;-81
2023/05/10 05:20:53;;;;;;;2.50;2.30;;;;;;;16.68;44.56;100447.81;4997632;28;97482;-82
2023/05/10 05:23:20;;;;;;;3.83;2.43;;;;;;;16.66;44.67;100471.88;5011182;27;97613;-82
2023/05/10 05:25:46;;;;;;;1.90;1.80;;;;;;;16.67;44.46;100467.78;4996389;28;96904;-82
2023/05/10 05:28:11;;;;;;;2.70;2.50;;;;;;;16.66;44.49;100455.19;4997171;28;99967;-81
2023/05/10 05:30:37;;;;;;;2.77;2.17;;;;;;;16.64;44.67;100460.56;4995637;28;96765;-81
2023/05/10 05:33:02;;;;;;;2.63;2.40;;;;;;;16.67;44.67;100462.25;4996257;28;97353;-81
2023/05/10 05:35:27;;;;;;;2.90;2.70;;;;;;;16.71;44.71;100474.50;4991689;28;97195;-82
2023/05/10 05:37:53;;;;;;;2.77;2.57;;;;;;;16.75;44.82;100482.53;4998245;28;100063;-82
2023/05/10 05:40:18;;;;;;;2.53;2.33;;;;;;;16.76;44.78;100473.66;5008234;27;96968;-82
2023/05/10 05:42:44;;;;;;;3.40;2.17;;;;;;;16.81;44.72;100494.25;5007054;27;97687;-82
2023/05/10 05:45:12;;;;;;;2.73;2.53;;;;;;;16.79;44.77;100485.72;5000287;28;99371;-81
2023/05/10 05:47:38;;;;;;;2.30;2.20;;;;;;;16.81;44.79;100494.25;4994979;28;100604;-82
2023/05/10 05:50:04;;;;;;;2.30;2.20;;;;;;;16.84;44.90;100515.41;4992268;28;96887;-81
2023/05/10 05:52:30;;;;;;;3.10;2.10;;;;;;;16.87;44.79;100503.22;4996014;28;96845;-81
2023/05/10 05:54:55;;;;;;;2.30;2.10;;;;;;;16.92;45.09;100544.03;4999383;28;100945;-82
2023/05/10 05:57:21;;;;;;;2.23;2.13;;;;;;;16.90;45.03;100524.38;4995049;28;99457;-82
2023/05/10 05:59:47;;;;;;;7.10;2.43;;;;;;;16.96;45.15;100528.53;4995770;28;97312;-81
2023/05/10 06:02:12;;;;;;;3.00;2.63;;;;;;;16.93;45.52;100537.94;5007974;27;96970;-81
2023/05/10 06:04:37;;;;;;;3.67;2.70;;;;;;;16.90;45.53;100527.16;5000270;28;100499;-81
2023/05/10 06:07:03;;;;;;;2.50;2.30;;;;;;;16.91;46.05;100531.41;4992438;28;97628;-81
2023/05/10 06:09:28;;;;;;;2.60;2.40;;;;;;;16.85;46.20;100522.47;4997301;28;97035;-81
2023/05/10 06:11:54;;;;;;;3.07;2.77;;;;;;;16.79;46.28;100542.03;4999409;28;97300;-81
2023/05/10 06:14:23;;;;;;;2.67;2.47;;;;;;;16.76;46.98;100537.56;4997436;28;96819;-81
2023/05/10 06:16:48;;;;;;;2.80;2.60;;;;;;;16.76;46.71;100531.25;4992955;28;107659;-81
2023/05/10 06:19:13;;;;;;;2.73;2.53;;;;;;;16.74;46.83;100544.91;5008045;27;97795;-80
2023/05/10 06:21:39;;;;;;;2.80;2.60;;;;;;;16.73;47.08;100549.00;4996036;28;97407;-80
2023/05/10 06:24:06;;;;;;;3.10;2.90;;;;;;;16.75;47.15;100530.50;5010505;27;100215;-80
2023/05/10 06:26:32;;;;;;;5.03;3.20;;;;;;;16.78;47.29;100531.44;5000441;28;97655;-80
2023/05/10 06:28:57;;;;;;;3.27;2.87;;;;;;;16.78;47.62;100528.66;5013240;27;97601;-80
2023/05/10 06:31:22;;;;;;;3.50;3.20;;;;;;;16.82;47.91;100537.44;4994864;28;96945;-80
2023/05/10 06:33:48;;;;;;;2.97;2.77;;;;;;;16.79;47.91;100546.84;4996626;28;97905;-80
2023/05/10 06:36:13;;;;;;;3.80;3.50;;;;;;;16.77;48.01;100552.19;4997373;28;100057;-80
2023/05/10 06:38:39;;;;;;;3.20;3.00;;;;;;;16.69;48.23;100537.44;5001175;28;97449;-80
2023/05/10 06:41:04;;;;;;;3.07;2.87;;;;;;;16.70;48.47;100538.94;4999618;28;97321;-82
2023/05/10 06:43:29;;;;;;;2.80;2.60;;;;;;;16.68;48.52;100533.19;4997138;28;97671;-80
2023/05/10 06:45:55;;;;;;;3.30;2.97;;;;;;;16.67;48.67;100540.00;5000453;28;97296;-81
2023/05/10 06:48:21;;;;;;;3.93;3.57;;;;;;;16.65;48.86;100526.66;5001401;28;98400;-80
2023/05/10 06:50:46;;;;;;;3.73;3.43;;;;;;;16.70;48.96;100528.59;5000002;28;96707;-80
2023/05/10 06:53:11;;;;;;;3.00;2.80;;;;;;;16.70;49.13;100541.72;4995140;28;106623;-79
2023/05/10 06:55:37;;;;;;;2.73;2.60;;;;;;;16.76;49.12;100536.78;5001339;28;100188;-80
2023/05/10 06:58:02;;;;;;;3.00;2.80;;;;;;;16.71;49.21;100568.97;4998273;28;97199;-83
2023/05/10 07:00:28;;;;;;;3.77;3.57;;;;;;;16.72;49.29;100539.91;5014460;27;97954;-80
2023/05/10 07:02:53;;;;;;;3.37;3.17;;;;;;;16.70;49.64;100538.94;4996456;28;101693;-80
2023/05/10 07:05:19;;;;;;;6.37;3.77;;;;;;;16.62;49.83;100530.50;5001981;28;100492;-81
2023/05/10 07:07:45;;;;;;;3.60;3.30;;;;;;;16.64;49.98;100549.44;4997362;28;96938;-81
2023/05/10 07:10:10;;;;;;;3.30;3.10;;;;;;;16.62;50.05;100549.22;4995825;28;97282;-80
2023/05/10 07:12:35;;;;;;;3.10;2.90;;;;;;;16.62;50.12;100563.84;5000942;28;99062;-80
2023/05/10 07:15:01;;;;;;;3.60;3.33;;;;;;;16.59;50.31;100558.63;4996996;28;98112;-81
2023/05/10 07:17:26;;;;;;;3.40;3.13;;;;;;;16.60;50.24;100544.19;4996064;28;97092;-80
2023/05/10 07:19:51;;;;;;;3.13;2.87;;;;;;;16.59;50.43;100553.06;4998309;28;97017;-80
2023/05/10 07:22:17;;;;;;;6.43;3.27;;;;;;;16.59;50.40;100550.28;5013559;27;99547;-80
2023/05/10 07:24:42;;;;;;;2.73;2.60;;;;;;;16.58;50.70;100557.88;4995297;28;98818;-80
2023/05/10 07:27:08;;;;;;;3.37;3.17;;;;;;;16.52;50.93;100612.78;5000429;28;96835;-80
2023/05/10 07:29:34;;;;;;;3.00;2.80;;;;;;;16.54;50.87;100560.22;4997413;28;97352;-80
2023/05/10 07:32:00;;;;;;;3.43;3.23;;;;;;;16.55;51.26;100574.88;4998844;28;97374;-80
2023/05/10 07:34:25;;;;;;;3.27;3.07;;;;;;;16.55;51.20;100563.75;5014933;27;99068;-80
2023/05/10 07:36:51;;;;;;;4.27;3.90;;;;;;;16.58;51.41;100582.16;4998002;28;97618;-80
2023/05/10 07:39:16;;;;;;;4.70;4.17;;;;;;;16.57;51.40;100577.84;4998301;28;97436;-80
2023/05/10 07:41:42;;;;;;;6.90;3.67;;;;;;;16.57;51.51;100617.50;4999442;28;100240;-80
2023/05/10 07:44:07;;;;;;;3.53;3.23;;;;;;;16.56;51.86;100585.44;4999292;28;97942;-80
2023/05/10 07:46:33;;;;;;;4.70;4.20;;;;;;;16.56;51.98;100585.44;4997079;28;96946;-79
2023/05/10 07:48:58;;;;;;;3.60;3.40;;;;;;;16.58;52.02;100573.81;5000071;28;97892;-80
2023/05/10 07:51:23;;;;;;;4.70;4.30;;;;;;;16.64;52.19;100580.00;4998058;28;98519;-80
2023/05/10 07:53:49;;;;;;;4.37;4.07;;;;;;;16.65;52.39;100587.78;4996667;28;100184;-81
2023/05/10 07:56:22;;;;;;;4.13;3.80;;;;;;;16.74;53.17;100584.56;4998184;28;97070;-80
2023/05/10 07:58:47;;;;;;;3.80;3.50;;;;;;;16.76;52.43;100597.91;5001021;28;97490;-81
2023/05/10 08:01:12;;;;;;;3.63;3.33;;;;;;;16.73;52.63;100583.06;5012878;27;100018;-81
2023/05/10 08:03:38;;;;;;;4.27;3.97;;;;;;;16.75;52.75;100588.09;5003679;28;99010;-81
2023/05/10 08:06:03;;;;;;;3.77;3.50;;;;;;;16.78;53.00;100612.03;4998108;28;97183;-83
2023/05/10 08:08:29;;;;;;;4.00;3.60;;;;;;;16.81;52.92;100608.19;5009520;27;97365;-82
2023/05/10 08:10:54;;;;;;;4.27;3.93;;;;;;;16.83;53.15;100614.69;4998154;28;105267;-82
2023/05/10 08:13:21;;;;;;;3.80;3.50;;;;;;;16.84;53.09;100601.56;4999887;28;99336;-83
2023/05/10 08:15:46;;;;;;;4.20;3.90;;;;;;;16.85;53.19;100647.50;4958332;28;1192567;-81
2023/05/10 08:18:11;;;;;;;4.00;3.70;;;;;;;16.92;53.38;100625.38;4999760;28;96877;-81
2023/05/10 08:20:37;;;;;;;4.00;3.70;;;;;;;16.95;53.45;100621.50;5014862;28;103008;-83
2023/05/10 08:23:02;;;;;;;4.10;3.80;;;;;;;16.96;53.43;100641.72;4999996;28;98016;-82
2023/05/10 08:25:27;;;;;;;4.30;3.90;;;;;;;17.00;53.59;100631.78;5015979;28;97153;-82
2023/05/10 08:27:53;;;;;;;5.77;4.00;;;;;;;17.02;53.95;100625.66;4999675;28;97243;-82
2023/05/10 08:30:18;;;;;;;4.90;4.37;;;;;;;17.01;53.71;100638.09;4998296;28;107545;-82
2023/05/10 08:32:43;;;;;;;4.87;4.47;;;;;;;17.07;53.82;100638.72;5002715;28;103505;-82
2023/05/10 08:35:09;;;;;;;3.83;3.63;;;;;;;17.08;54.00;100631.88;5001859;28;97179;-82
2023/05/10 08:37:34;;;;;;;3.90;3.50;;;;;;;17.09;54.10;100648.00;5015442;27;97583;-81
2023/05/10 08:39:59;;;;;;;4.00;3.70;;;;;;;17.09;54.25;100655.59;4997965;28;99136;-82
2023/05/10 08:42:30;;;;;;;3.20;3.00;;;;;;;17.10;54.76;100649.50;4997523;28;97152;-83
2023/05/10 08:44:57;;;;;;;2.83;2.67;;;;;;;17.14;54.57;100651.97;5012094;27;97562;-81
2023/05/10 08:47:23;;;;;;;3.10;2.90;;;;;;;17.15;54.56;100647.88;5001669;27;97993;-82
2023/05/10 08:49:50;;;;;;;3.03;2.83;;;;;;;17.17;54.62;100654.41;5013782;27;99542;-82
2023/05/10 08:52:17;;;;;;;3.13;2.93;;;;;;;17.20;54.86;100660.91;5001598;28;97964;-82
2023/05/10 08:54:43;;;;;;;3.40;3.17;;;;;;;17.21;54.77;100657.59;5006193;28;97125;-82
2023/05/10 08:57:09;;;;;;;3.40;3.10;;;;;;;17.27;55.00;100663.06;5008138;28;97298;-83
2023/05/10 08:59:34;;;;;;;3.63;2.67;;;;;;;17.32;55.08;100653.09;5015740;27;101053;-82
2023/05/10 09:02:01;;;;;;;3.23;3.03;;;;;;;17.35;55.14;100668.69;4995970;28;99170;-82
2023/05/10 09:04:27;;;;;;;3.13;2.93;;;;;;;17.44;55.21;100682.91;5003324;28;97491;-82
2023/05/10 09:06:54;;;;;;;3.20;2.93;;;;;;;17.49;55.28;100668.13;4997970;28;97555;-82
2023/05/10 09:09:20;;;;;;;6.00;3.57;;;;;;;17.54;55.31;100670.03;5003868;28;99440;-82
2023/05/10 09:11:46;;;;;;;3.60;3.30;;;;;;;17.61;55.44;100685.31;5011777;27;100257;-81
2023/05/10 09:14:12;;;;;;;4.30;3.30;;;;;;;17.64;55.59;100685.00;5012003;27;97064;-81
2023/05/10 09:16:38;;;;;;;3.70;3.40;;;;;;;17.71;55.75;100680.81;5009864;27;97366;-82
2023/05/10 09:19:03;;;;;;;3.70;3.50;;;;;;;17.75;55.75;100700.69;4996787;28;97462;-82
2023/05/10 09:21:30;;;;;;;3.23;2.87;;;;;;;17.80;55.80;100703.34;4996644;28;101870;-81
2023/05/10 09:23:56;;;;;;;3.67;3.47;;;;;;;17.84;55.92;100691.88;5009778;27;96988;-82
2023/05/10 09:26:23;;;;;;;3.90;3.60;;;;;;;17.84;55.88;100692.59;5011869;28;97987;-82
2023/05/10 09:28:59;;;;;;;3.80;3.50;;;;;;;17.93;57.10;100699.78;4996067;28;100965;-81
2023/05/10 09:31:44;;;;;;;3.50;3.30;;;;;;;17.95;57.51;100694.41;4996442;28;97689;-81
2023/05/10 09:34:10;;;;;;;2.87;2.70;;;;;;;18.00;55.95;100709.50;4995040;28;97678;-82
2023/05/10 09:36:35;;;;;;;3.10;2.90;;;;;;;18.04;55.84;100699.50;4999172;28;97188;-81
2023/05/10 09:39:00;;;;;;;2.57;2.47;;;;;;;18.07;56.12;100717.91;4997331;28;98230;-81
2023/05/10 09:41:25;;;;;;;2.53;2.43;;;;;;;18.06;56.22;100719.19;5013710;27;110976;-80
2023/05/10 09:43:56;;;;;;;3.80;2.30;;;;;;;18.09;56.73;100722.91;4996111;28;97114;-81
2023/05/10 09:46:22;;;;;;;2.87;2.67;;;;;;;18.08;56.30;100722.19;5012672;27;97103;-82
2023/05/10 09:48:48;;;;;;;2.43;2.30;;;;;;;18.11;56.37;100709.22;4997978;28;97932;-81
2023/05/10 09:51:23;;;;;;;2.57;2.47;;;;;;;18.10;57.16;100721.63;4998206;28;97093;-81
2023/05/10 09:54:09;;;;;;;2.90;2.70;;;;;;;18.08;58.21;100722.19;5000568;28;97239;-81
2023/05/10 09:56:36;;;;;;;4.80;2.60;;;;;;;18.13;56.55;100715.00;5014104;28;96790;-81
2023/05/10 09:59:05;;;;;;;2.40;2.30;;;;;;;18.15;56.93;100729.13;4997279;28;100114;-81
2023/05/10 10:01:31;;;;;;;2.40;2.23;;;;;;;18.14;56.60;100745.06;4998014;28;98653;-81
2023/05/10 10:03:58;;;;;;;4.10;2.50;;;;;;;18.13;56.64;100738.00;4997499;28;96778;-81
2023/05/10 10:06:24;;;;;;;2.23;2.10;;;;;;;18.11;56.69;100743.34;4992552;28;96652;-81
2023/05/10 10:08:51;;;;;;;1.97;1.87;;;;;;;18.13;56.83;100737.25;5013967;27;99468;-81
2023/05/10 10:11:16;;;;;;;1.80;1.73;;;;;;;18.14;56.88;100741.53;4998905;28;98205;-81
2023/05/10 10:13:42;;;;;;;1.80;1.70;;;;;;;18.18;57.03;100736.38;5012316;27;97198;-81
2023/05/10 10:16:08;;;;;;;1.67;1.57;;;;;;;18.26;57.01;100740.00;4996147;28;97125;-80
2023/05/10 10:18:38;;;;;;;2.00;1.90;;;;;;;18.29;57.01;100736.84;5003336;28;100583;-81
2023/05/10 10:21:06;;;;;;;1.80;1.70;;;;;;;18.30;56.93;100746.72;4994215;28;97352;-80
2023/05/10 10:23:31;;;;;;;1.77;1.67;;;;;;;18.30;57.19;100741.16;4996794;28;97599;-80
2023/05/10 10:25:57;;;;;;;1.97;1.87;;;;;;;18.37;57.22;100742.50;4994788;28;97135;-80
2023/05/10 10:28:26;;;;;;;2.00;1.80;;;;;;;18.45;57.27;100748.91;4995573;28;96998;-80
2023/05/10 10:30:55;;;;;;;1.83;1.73;;;;;;;18.51;57.21;100755.81;5010871;27;99235;-80
2023/05/10 10:33:46;;;;;;;1.90;1.80;;;;;;;18.62;58.58;100749.22;5002101;28;97462;-80
2023/05/10 10:36:12;;;;;;;1.30;1.30;;;;;;;18.68;57.10;100753.34;4994549;28;97475;-81
2023/05/10 10:38:46;;;;;;;1.63;1.53;;;;;;;18.71;57.97;100754.31;4991412;28;99490;-81
2023/05/10 10:41:40;;;;;;;1.87;1.77;;;;;;;18.72;58.17;100763.41;4997912;28;100479;-80
2023/05/10 10:44:29;;;;;;;1.73;1.73;;;;;;;18.75;58.26;100749.13;4996518;28;96733;-81
2023/05/10 10:47:22;;;;;;;2.27;2.10;;;;;;;18.82;58.66;100747.69;4994152;28;97200;-80
2023/05/10 10:49:51;;;;;;;1.60;1.50;;;;;;;18.89;57.10;100749.78;4991632;28;97500;-80
2023/05/10 10:52:46;;;;;;;1.50;1.47;;;;;;;18.95;58.42;100751.13;4995824;28;97669;-80
2023/05/10 10:55:25;;;;;;;1.73;1.63;;;;;;;18.99;57.52;100754.31;4994174;28;97109;-81
2023/05/10 10:57:53;;;;;;;2.13;2.03;;;;;;;19.02;57.12;100752.47;5009762;27;97499;-81
2023/05/10 11:00:23;;;;;;;2.00;1.90;;;;;;;19.04;56.95;100752.66;4997253;28;97799;-80
2023/05/10 11:02:59;;;;;;;1.90;1.80;;;;;;;19.09;58.05;100752.50;4999202;28;99994;-81
2023/05/10 11:05:27;;;;;;;1.60;1.50;;;;;;;19.12;57.07;100751.41;4993722;28;97357;-80
2023/05/10 11:07:59;;;;;;;1.67;1.57;;;;;;;19.14;57.46;100754.41;4994847;28;97129;-81
2023/05/10 11:10:26;;;;;;;1.90;1.80;;;;;;;19.17;57.24;100752.56;4996444;28;99712;-82
2023/05/10 11:13:02;;;;;;;1.80;1.70;;;;;;;19.13;57.24;100761.25;5013718;27;99116;-81
2023/05/10 11:15:36;;;;;;;1.67;1.57;;;;;;;19.07;57.90;100763.47;4998472;28;96904;-81
2023/05/10 11:18:18;;;;;;;1.37;1.30;;;;;;;19.03;58.71;100762.31;4998949;28;97259;-80
2023/05/10 11:20:46;;;;;;;1.33;1.23;;;;;;;19.07;57.48;100769.03;5016425;27;99854;-80
2023/05/10 11:23:15;;;;;;;1.60;1.50;;;;;;;19.13;57.45;100768.91;4994254;28;99705;-80
2023/05/10 11:25:45;;;;;;;1.47;1.40;;;;;;;19.20;57.76;100766.13;5000351;28;97680;-81
2023/05/10 11:28:14;;;;;;;2.30;1.90;;;;;;;19.24;57.79;100774.91;5003423;28;97172;-80